sensor_id;sensor_type;location;lat;lon;timestamp;pressure;altitude;pressure_sealevel;temperature;humidity
75668;BME280;64266;48.798;44.756;2023-04-01T00:04:58;101551.78;;;5.17;59.39
75668;BME280;64266;48.798;44.756;2023-04-01T00:10:01;101543.50;;;4.96;59.67
75668;BME280;64266;48.798;44.756;2023-04-01T00:15:06;101543.53;;;5.12;60.80
75668;BME280;64266;48.798;44.756;2023-04-01T00:20:10;101535.31;;;4.99;59.69
75668;BME280;64266;48.798;44.756;2023-04-01T00:25:14;101534.97;;;4.93;59.78
75668;BME280;64266;48.798;44.756;2023-04-01T00:30:17;101564.25;;;5.07;60.06
75668;BME280;64266;48.798;44.756;2023-04-01T00:35:20;101563.56;;;5.05;58.80
75668;BME280;64266;48.798;44.756;2023-04-01T00:40:36;101574.59;;;5.00;59.60
75668;BME280;64266;48.798;44.756;2023-04-01T00:45:42;101583.94;;;5.03;59.14
75668;BME280;64266;48.798;44.756;2023-04-01T00:50:49;101582.94;;;4.96;59.18
75668;BME280;64266;48.798;44.756;2023-04-01T00:56:07;101602.00;;;4.98;58.96
75668;BME280;64266;48.798;44.756;2023-04-01T01:01:12;101596.03;;;4.79;59.94
75668;BME280;64266;48.798;44.756;2023-04-01T01:11:51;101595.88;;;4.81;58.97
75668;BME280;64266;48.798;44.756;2023-04-01T01:17:22;101590.81;;;4.87;58.98
75668;BME280;64266;48.798;44.756;2023-04-01T01:38:36;101576.50;;;4.82;58.02
75668;BME280;64266;48.798;44.756;2023-04-01T01:43:42;101594.91;;;4.90;60.64
75668;BME280;64266;48.798;44.756;2023-04-01T01:48:49;101579.31;;;4.88;59.12
75668;BME280;64266;48.798;44.756;2023-04-01T01:53:54;101578.00;;;4.92;59.75
75668;BME280;64266;48.798;44.756;2023-04-01T01:59:03;101594.28;;;4.96;58.89
75668;BME280;64266;48.798;44.756;2023-04-01T02:04:10;101579.63;;;4.85;59.80
75668;BME280;64266;48.798;44.756;2023-04-01T02:09:13;101583.56;;;4.89;59.47
75668;BME280;64266;48.798;44.756;2023-04-01T02:14:25;101613.84;;;5.02;59.57
75668;BME280;64266;48.798;44.756;2023-04-01T02:19:39;101611.84;;;4.96;58.93
75668;BME280;64266;48.798;44.756;2023-04-01T02:24:45;101627.47;;;4.97;59.48
75668;BME280;64266;48.798;44.756;2023-04-01T02:29:48;101600.16;;;4.82;58.95
75668;BME280;64266;48.798;44.756;2023-04-01T02:34:52;101616.75;;;4.90;58.47
75668;BME280;64266;48.798;44.756;2023-04-01T02:40:00;101629.41;;;4.87;58.62
75668;BME280;64266;48.798;44.756;2023-04-01T02:45:04;101630.28;;;5.04;58.48
75668;BME280;64266;48.798;44.756;2023-04-01T02:50:08;101633.25;;;5.09;57.58
75668;BME280;64266;48.798;44.756;2023-04-01T02:55:12;101625.69;;;5.14;57.33
75668;BME280;64266;48.798;44.756;2023-04-01T03:00:16;101608.28;;;5.13;56.97
75668;BME280;64266;48.798;44.756;2023-04-01T03:05:20;101623.25;;;5.12;57.25
75668;BME280;64266;48.798;44.756;2023-04-01T03:10:23;101587.22;;;4.97;57.41
75668;BME280;64266;48.798;44.756;2023-04-01T03:15:26;101624.75;;;5.23;56.93
75668;BME280;64266;48.798;44.756;2023-04-01T03:20:29;101611.28;;;5.34;57.85
75668;BME280;64266;48.798;44.756;2023-04-01T03:25:31;101617.53;;;5.33;57.06
75668;BME280;64266;48.798;44.756;2023-04-01T03:30:34;101620.34;;;5.31;56.98
75668;BME280;64266;48.798;44.756;2023-04-01T03:35:37;101634.31;;;5.40;57.15
75668;BME280;64266;48.798;44.756;2023-04-01T03:40:42;101636.44;;;5.44;56.88
75668;BME280;64266;48.798;44.756;2023-04-01T03:45:50;101657.03;;;5.73;57.19
75668;BME280;64266;48.798;44.756;2023-04-01T03:50:53;101662.00;;;5.92;56.77
75668;BME280;64266;48.798;44.756;2023-04-01T03:55:57;101654.75;;;5.94;57.09
75668;BME280;64266;48.798;44.756;2023-04-01T04:01:00;101654.91;;;6.09;56.34
75668;BME280;64266;48.798;44.756;2023-04-01T04:06:04;101656.38;;;6.28;56.24
75668;BME280;64266;48.798;44.756;2023-04-01T04:11:07;101665.03;;;6.52;56.21
75668;BME280;64266;48.798;44.756;2023-04-01T04:16:14;101659.25;;;6.73;54.90
75668;BME280;64266;48.798;44.756;2023-04-01T04:21:21;101660.69;;;6.84;54.17
75668;BME280;64266;48.798;44.756;2023-04-01T04:26:24;101661.88;;;7.12;54.54
75668;BME280;64266;48.798;44.756;2023-04-01T04:31:33;101672.78;;;7.40;53.71
75668;BME280;64266;48.798;44.756;2023-04-01T04:36:36;101676.72;;;7.89;53.65
75668;BME280;64266;48.798;44.756;2023-04-01T04:41:40;101647.34;;;8.30;52.55
75668;BME280;64266;48.798;44.756;2023-04-01T04:46:45;101663.72;;;9.49;49.65
75668;BME280;64266;48.798;44.756;2023-04-01T04:51:49;101662.16;;;10.52;47.94
75668;BME280;64266;48.798;44.756;2023-04-01T04:56:54;101658.25;;;11.36;45.92
75668;BME280;64266;48.798;44.756;2023-04-01T05:02:00;101656.53;;;12.35;44.17
75668;BME280;64266;48.798;44.756;2023-04-01T05:07:03;101662.16;;;12.85;43.19
75668;BME280;64266;48.798;44.756;2023-04-01T05:12:08;101653.66;;;13.83;40.53
75668;BME280;64266;48.798;44.756;2023-04-01T05:17:31;101652.41;;;14.35;40.58
75668;BME280;64266;48.798;44.756;2023-04-01T05:22:35;101652.44;;;14.72;39.30
75668;BME280;64266;48.798;44.756;2023-04-01T05:27:39;101657.28;;;14.81;39.61
75668;BME280;64266;48.798;44.756;2023-04-01T05:32:42;101669.72;;;15.35;39.07
75668;BME280;64266;48.798;44.756;2023-04-01T05:37:46;101673.38;;;15.70;38.17
75668;BME280;64266;48.798;44.756;2023-04-01T05:42:49;101675.78;;;16.02;38.36
75668;BME280;64266;48.798;44.756;2023-04-01T05:47:52;101684.78;;;16.65;36.46
75668;BME280;64266;48.798;44.756;2023-04-01T05:52:55;101667.75;;;16.83;35.80
75668;BME280;64266;48.798;44.756;2023-04-01T05:57:58;101683.50;;;17.19;35.08
75668;BME280;64266;48.798;44.756;2023-04-01T06:03:02;101672.16;;;17.29;35.39
75668;BME280;64266;48.798;44.756;2023-04-01T06:08:13;101670.56;;;17.56;33.75
75668;BME280;64266;48.798;44.756;2023-04-01T06:13:27;101684.34;;;17.93;33.99
75668;BME280;64266;48.798;44.756;2023-04-01T06:40:03;101659.47;;;19.61;30.78
75668;BME280;64266;48.798;44.756;2023-04-01T06:51:17;101646.19;;;19.50;29.64
75668;BME280;64266;48.798;44.756;2023-04-01T06:56:44;101646.00;;;19.61;29.95
75668;BME280;64266;48.798;44.756;2023-04-01T07:02:02;101646.81;;;19.93;29.00
75668;BME280;64266;48.798;44.756;2023-04-01T07:07:35;101622.97;;;20.49;28.99
75668;BME280;64266;48.798;44.756;2023-04-01T07:18:51;101617.16;;;19.88;28.54
75668;BME280;64266;48.798;44.756;2023-04-01T07:24:04;101628.66;;;19.47;28.14
75668;BME280;64266;48.798;44.756;2023-04-01T07:29:18;101630.88;;;19.28;28.58
75668;BME280;64266;48.798;44.756;2023-04-01T08:01:32;101622.63;;;17.31;29.60
75668;BME280;64266;48.798;44.756;2023-04-01T08:06:56;101616.66;;;17.29;30.55
75668;BME280;64266;48.798;44.756;2023-04-01T08:23:28;101621.41;;;17.11;30.43
75668;BME280;64266;48.798;44.756;2023-04-01T08:34:01;101611.16;;;17.08;28.48
75668;BME280;64266;48.798;44.756;2023-04-01T09:00:10;101647.13;;;17.23;27.69
75668;BME280;64266;48.798;44.756;2023-04-01T09:22:30;101625.94;;;16.70;27.78
75668;BME280;64266;48.798;44.756;2023-04-01T09:27:57;101668.38;;;17.13;27.60
75668;BME280;64266;48.798;44.756;2023-04-01T09:54:47;101647.03;;;17.18;28.40
75668;BME280;64266;48.798;44.756;2023-04-01T10:11:42;101626.13;;;17.04;28.16
75668;BME280;64266;48.798;44.756;2023-04-01T10:44:49;101600.09;;;17.32;30.38
75668;BME280;64266;48.798;44.756;2023-04-01T11:33:07;101565.25;;;16.88;29.82
75668;BME280;64266;48.798;44.756;2023-04-01T11:44:29;101562.94;;;17.08;30.26
75668;BME280;64266;48.798;44.756;2023-04-01T11:55:46;101551.56;;;17.01;29.51
75668;BME280;64266;48.798;44.756;2023-04-01T12:11:41;101526.69;;;16.89;29.40
75668;BME280;64266;48.798;44.756;2023-04-01T12:16:59;101510.28;;;16.85;28.31
75668;BME280;64266;48.798;44.756;2023-04-01T12:22:28;101515.66;;;17.02;28.87
75668;BME280;64266;48.798;44.756;2023-04-01T12:43:42;101495.91;;;16.91;28.96
75668;BME280;64266;48.798;44.756;2023-04-01T12:49:26;101476.78;;;16.71;28.84
75668;BME280;64266;48.798;44.756;2023-04-01T13:11:00;101499.34;;;16.35;29.91
75668;BME280;64266;48.798;44.756;2023-04-01T13:16:19;101482.03;;;16.26;29.54
75668;BME280;64266;48.798;44.756;2023-04-01T13:26:57;101498.13;;;16.14;29.20
75668;BME280;64266;48.798;44.756;2023-04-01T13:43:12;101499.06;;;15.97;31.37
75668;BME280;64266;48.798;44.756;2023-04-01T13:48:32;101498.28;;;15.85;32.08
75668;BME280;64266;48.798;44.756;2023-04-01T13:59:57;101498.03;;;15.51;32.10
75668;BME280;64266;48.798;44.756;2023-04-01T14:04:43;101499.66;;;15.41;32.94
75668;BME280;64266;48.798;44.756;2023-04-01T14:10:02;101503.00;;;15.36;33.29
75668;BME280;64266;48.798;44.756;2023-04-01T14:15:31;101510.75;;;15.26;32.42
75668;BME280;64266;48.798;44.756;2023-04-01T14:26:00;101508.63;;;15.05;34.88
75668;BME280;64266;48.798;44.756;2023-04-01T14:37:03;101519.63;;;14.97;33.09
75668;BME280;64266;48.798;44.756;2023-04-01T14:47:56;101524.22;;;14.78;34.28
75668;BME280;64266;48.798;44.756;2023-04-01T14:58:16;101533.53;;;14.57;34.37
75668;BME280;64266;48.798;44.756;2023-04-01T15:14:08;101555.00;;;14.26;35.16
75668;BME280;64266;48.798;44.756;2023-04-01T15:24:47;101560.88;;;13.92;36.24
75668;BME280;64266;48.798;44.756;2023-04-01T15:30:15;101562.63;;;13.80;37.21
75668;BME280;64266;48.798;44.756;2023-04-01T15:35:41;101566.53;;;13.52;36.91
75668;BME280;64266;48.798;44.756;2023-04-01T15:41:02;101572.66;;;13.28;36.60
75668;BME280;64266;48.798;44.756;2023-04-01T16:19:24;101591.41;;;12.58;39.12
75668;BME280;64266;48.798;44.756;2023-04-01T16:24:35;101602.66;;;12.53;39.40
75668;BME280;64266;48.798;44.756;2023-04-01T16:30:16;101601.25;;;12.50;40.92
75668;BME280;64266;48.798;44.756;2023-04-01T16:35:41;101594.75;;;12.33;40.27
75668;BME280;64266;48.798;44.756;2023-04-01T16:46:26;101596.59;;;12.26;41.05
75668;BME280;64266;48.798;44.756;2023-04-01T16:51:40;101581.69;;;12.12;41.64
75668;BME280;64266;48.798;44.756;2023-04-01T16:56:55;101575.56;;;12.05;42.08
75668;BME280;64266;48.798;44.756;2023-04-01T17:02:09;101609.91;;;12.26;43.07
75668;BME280;64266;48.798;44.756;2023-04-01T17:07:21;101617.25;;;12.31;42.63
75668;BME280;64266;48.798;44.756;2023-04-01T17:29:26;101596.59;;;12.26;42.27
75668;BME280;64266;48.798;44.756;2023-04-01T17:35:12;101580.66;;;12.13;42.67
75668;BME280;64266;48.798;44.756;2023-04-01T17:45:53;101593.72;;;12.28;42.19
75668;BME280;64266;48.798;44.756;2023-04-01T17:51:15;101587.38;;;12.29;43.22
75668;BME280;64266;48.798;44.756;2023-04-01T18:07:29;101581.47;;;12.33;43.15
75668;BME280;64266;48.798;44.756;2023-04-01T18:23:27;101569.19;;;12.32;43.29
75668;BME280;64266;48.798;44.756;2023-04-01T18:33:44;101557.72;;;12.25;42.17
75668;BME280;64266;48.798;44.756;2023-04-01T18:39:22;101545.50;;;12.18;42.73
75668;BME280;64266;48.798;44.756;2023-04-01T18:44:57;101541.19;;;12.17;42.78
75668;BME280;64266;48.798;44.756;2023-04-01T18:50:27;101556.91;;;12.18;42.85
75668;BME280;64266;48.798;44.756;2023-04-01T18:55:40;101545.28;;;12.19;42.85
75668;BME280;64266;48.798;44.756;2023-04-01T19:06:18;101525.28;;;11.97;43.46
75668;BME280;64266;48.798;44.756;2023-04-01T19:12:13;101527.94;;;11.97;44.57
75668;BME280;64266;48.798;44.756;2023-04-01T19:22:49;101529.56;;;11.98;43.23
75668;BME280;64266;48.798;44.756;2023-04-01T19:28:11;101548.16;;;12.05;42.83
75668;BME280;64266;48.798;44.756;2023-04-01T20:11:03;101526.72;;;11.60;44.56
75668;BME280;64266;48.798;44.756;2023-04-01T20:16:09;101512.00;;;11.44;45.08
75668;BME280;64266;48.798;44.756;2023-04-01T20:26:22;101526.91;;;11.39;45.49
75668;BME280;64266;48.798;44.756;2023-04-01T20:31:34;101497.88;;;11.11;46.25
75668;BME280;64266;48.798;44.756;2023-04-01T20:53:14;101519.50;;;10.95;48.28
75668;BME280;64266;48.798;44.756;2023-04-01T21:15:03;101516.41;;;10.78;48.58
75668;BME280;64266;48.798;44.756;2023-04-01T21:20:44;101503.09;;;10.65;49.01
75668;BME280;64266;48.798;44.756;2023-04-01T21:25:56;101503.09;;;10.65;48.85
75668;BME280;64266;48.798;44.756;2023-04-01T21:36:58;101503.91;;;10.66;48.76
75668;BME280;64266;48.798;44.756;2023-04-01T22:08:38;101487.69;;;10.34;48.87
75668;BME280;64266;48.798;44.756;2023-04-01T22:24:07;101476.63;;;10.24;49.15
75668;BME280;64266;48.798;44.756;2023-04-01T22:29:31;101469.69;;;10.23;48.93
75668;BME280;64266;48.798;44.756;2023-04-01T22:35:06;101467.22;;;10.22;48.40
75668;BME280;64266;48.798;44.756;2023-04-01T22:40:30;101445.13;;;10.08;48.19
75668;BME280;64266;48.798;44.756;2023-04-01T22:56:37;101443.72;;;10.12;49.18
75668;BME280;64266;48.798;44.756;2023-04-01T23:01:54;101439.84;;;10.08;48.47
75668;BME280;64266;48.798;44.756;2023-04-01T23:07:04;101448.06;;;10.20;48.16
75668;BME280;64266;48.798;44.756;2023-04-01T23:12:13;101438.72;;;10.24;48.78
75668;BME280;64266;48.798;44.756;2023-04-01T23:18:09;101438.69;;;10.17;48.91
75668;BME280;64266;48.798;44.756;2023-04-01T23:23:11;101441.72;;;10.14;49.63
75668;BME280;64266;48.798;44.756;2023-04-01T23:33:56;101408.94;;;9.88;49.63
75668;BME280;64266;48.798;44.756;2023-04-01T23:39:03;101433.13;;;10.06;49.40
75668;BME280;64266;48.798;44.756;2023-04-01T23:44:25;101436.78;;;10.11;49.25
75668;BME280;64266;48.798;44.756;2023-04-01T23:49:40;101433.88;;;10.00;49.34
75668;BME280;64266;48.798;44.756;2023-04-01T23:54:52;101396.91;;;9.85;49.79
